createdAt,value
2019-06-26T00:00:36.650Z,22.91
2019-06-26T00:03:05.108Z,22.90
2019-06-26T00:05:33.746Z,22.68
2019-06-26T00:08:02.175Z,22.76
2019-06-26T00:10:30.685Z,22.79
2019-06-26T00:12:59.299Z,22.57
2019-06-26T00:15:27.798Z,22.61
2019-06-26T00:17:56.464Z,22.47
2019-06-26T00:20:25.200Z,22.49
2019-06-26T00:22:53.794Z,22.61
2019-06-26T00:25:22.318Z,22.23
2019-06-26T00:27:50.858Z,22.33
2019-06-26T00:30:19.873Z,22.37
2019-06-26T00:32:48.286Z,22.40
2019-06-26T00:35:16.984Z,22.33
2019-06-26T00:37:45.457Z,22.32
2019-06-26T00:40:14.291Z,22.27
2019-06-26T00:42:43.025Z,22.16
2019-06-26T00:45:11.817Z,22.20
2019-06-26T00:47:40.310Z,21.95
2019-06-26T00:50:09.404Z,21.94
2019-06-26T00:52:38.173Z,21.95
2019-06-26T00:55:07.243Z,22.16
2019-06-26T00:57:35.954Z,22.07
2019-06-26T01:00:09.988Z,22.11
2019-06-26T01:02:38.494Z,21.87
2019-06-26T01:05:11.145Z,22.03
2019-06-26T01:07:39.906Z,22.07
2019-06-26T01:10:09.277Z,22.07
2019-06-26T01:12:37.930Z,22.06
2019-06-26T01:15:07.103Z,21.57
2019-06-26T01:17:35.603Z,21.74
2019-06-26T01:20:09.127Z,21.83
2019-06-26T01:22:37.542Z,21.83
2019-06-26T01:25:06.638Z,21.71
2019-06-26T01:27:35.353Z,21.78
2019-06-26T01:30:05.523Z,21.79
2019-06-26T01:32:33.952Z,21.61
2019-06-26T01:35:02.587Z,21.51
2019-06-26T01:37:31.114Z,21.46
2019-06-26T01:39:59.640Z,21.59
2019-06-26T01:42:28.386Z,21.51
2019-06-26T01:44:56.818Z,21.52
2019-06-26T01:47:25.278Z,21.59
2019-06-26T01:49:53.751Z,21.52
2019-06-26T01:52:22.181Z,21.32
2019-06-26T01:54:50.775Z,21.40
2019-06-26T01:57:19.682Z,21.58
2019-06-26T01:59:48.117Z,21.53
2019-06-26T02:02:16.550Z,21.45
2019-06-26T02:04:45.025Z,21.61
2019-06-26T02:07:13.465Z,21.37
2019-06-26T02:09:41.918Z,21.48
2019-06-26T02:12:10.477Z,21.36
2019-06-26T02:14:38.912Z,21.40
2019-06-26T02:17:07.372Z,21.35
2019-06-26T02:19:35.905Z,21.46
2019-06-26T02:22:04.434Z,21.44
2019-06-26T02:24:32.923Z,21.30
2019-06-26T02:27:01.424Z,21.40
2019-06-26T02:29:29.964Z,21.39
2019-06-26T02:31:58.392Z,21.29
2019-06-26T02:34:26.878Z,21.22
2019-06-26T02:36:55.311Z,21.15
2019-06-26T02:39:23.738Z,21.20
2019-06-26T02:41:52.291Z,21.27
2019-06-26T02:44:20.783Z,21.08
2019-06-26T02:46:49.284Z,21.26
2019-06-26T02:49:17.904Z,21.23
2019-06-26T02:51:46.368Z,21.15
2019-06-26T02:54:14.793Z,21.15
2019-06-26T02:56:43.555Z,21.05
2019-06-26T02:59:12.109Z,21.16
2019-06-26T03:01:40.560Z,21.04
2019-06-26T03:04:09.019Z,21.04
2019-06-26T03:06:37.457Z,21.18
2019-06-26T03:09:07.336Z,20.88
2019-06-26T03:11:35.907Z,20.94
2019-06-26T03:14:04.432Z,21.10
2019-06-26T03:16:32.861Z,20.97
2019-06-26T03:19:01.417Z,21.07
2019-06-26T03:21:29.848Z,20.99
2019-06-26T03:23:58.344Z,20.95
2019-06-26T03:26:26.874Z,20.90
2019-06-26T03:28:55.302Z,20.79
2019-06-26T03:31:23.799Z,20.83
2019-06-26T03:33:52.272Z,20.94
2019-06-26T03:36:20.839Z,20.95
2019-06-26T03:38:49.277Z,21.00
2019-06-26T03:41:17.805Z,20.98
2019-06-26T03:43:46.377Z,21.05
2019-06-26T03:46:14.878Z,21.08
2019-06-26T03:48:43.347Z,20.55
2019-06-26T03:51:14.010Z,20.84
2019-06-26T03:53:41.996Z,20.98
2019-06-26T03:56:10.683Z,21.03
2019-06-26T03:58:39.113Z,21.06
2019-06-26T04:01:07.662Z,21.11
2019-06-26T04:03:36.164Z,21.06
2019-06-26T04:06:04.755Z,21.26
2019-06-26T04:08:33.181Z,21.21
2019-06-26T04:11:01.667Z,21.29
2019-06-26T04:13:30.093Z,21.31
2019-06-26T04:15:58.611Z,21.34
2019-06-26T04:18:27.169Z,21.36
2019-06-26T04:20:55.625Z,21.51
2019-06-26T04:23:24.070Z,21.66
2019-06-26T04:25:52.664Z,21.87
2019-06-26T04:28:21.092Z,21.77
2019-06-26T04:30:49.536Z,21.84
2019-06-26T04:33:18.012Z,21.73
2019-06-26T04:35:46.413Z,22.07
2019-06-26T04:38:14.920Z,22.59
2019-06-26T04:40:43.572Z,22.83
2019-06-26T04:43:12.015Z,23.41
2019-06-26T04:45:40.450Z,23.78
2019-06-26T04:48:09.105Z,23.66
2019-06-26T04:50:37.549Z,23.75
2019-06-26T04:53:06.118Z,23.94
2019-06-26T04:55:34.599Z,24.19
2019-06-26T04:58:03.022Z,24.49
2019-06-26T05:00:31.456Z,24.82
2019-06-26T05:03:00.143Z,24.96
2019-06-26T05:05:38.912Z,24.78
2019-06-26T05:07:58.781Z,25.25
2019-06-26T05:10:27.264Z,25.08
2019-06-26T05:12:55.677Z,24.91
2019-06-26T05:15:24.237Z,25.13
2019-06-26T05:17:52.926Z,25.18
2019-06-26T05:20:21.494Z,25.11
2019-06-26T05:22:49.933Z,25.54
2019-06-26T05:25:18.776Z,25.54
2019-06-26T05:27:47.233Z,25.60
2019-06-26T05:30:16.502Z,25.62
2019-06-26T05:32:44.960Z,25.63
2019-06-26T05:35:13.560Z,26.58
2019-06-26T05:37:42.069Z,26.91
2019-06-26T05:40:11.765Z,27.32
2019-06-26T05:42:40.356Z,27.02
2019-06-26T05:45:09.721Z,27.17
2019-06-26T05:47:38.285Z,27.40
2019-06-26T05:50:10.974Z,26.83
2019-06-26T05:52:42.422Z,27.24
2019-06-26T05:55:10.909Z,27.24
2019-06-26T05:57:41.819Z,27.11
2019-06-26T06:00:10.769Z,27.70
2019-06-26T06:02:39.369Z,27.55
2019-06-26T06:05:08.799Z,27.90
2019-06-26T06:07:37.405Z,27.64
2019-06-26T06:10:06.691Z,27.81
2019-06-26T06:12:35.122Z,28.04
2019-06-26T06:15:07.858Z,28.13
2019-06-26T06:17:36.887Z,28.16
2019-06-26T06:20:06.577Z,28.18
2019-06-26T06:22:35.012Z,27.50
2019-06-26T06:25:03.854Z,27.92
2019-06-26T06:27:32.369Z,28.25
2019-06-26T06:30:00.840Z,28.27
2019-06-26T06:32:29.497Z,28.35
2019-06-26T06:34:57.997Z,28.39
2019-06-26T06:37:26.528Z,28.44
2019-06-26T06:39:55.002Z,28.65
2019-06-26T06:42:23.524Z,28.46
2019-06-26T06:44:51.953Z,28.74
2019-06-26T06:47:20.587Z,28.75
2019-06-26T06:49:49.012Z,28.92
2019-06-26T06:52:17.444Z,29.20
2019-06-26T06:54:46.046Z,29.23
2019-06-26T06:57:14.656Z,29.31
2019-06-26T06:59:43.155Z,29.27
2019-06-26T07:02:11.660Z,29.49
2019-06-26T07:04:40.087Z,29.62
2019-06-26T07:07:08.525Z,29.70
2019-06-26T07:09:36.975Z,29.64
2019-06-26T07:12:05.539Z,29.63
2019-06-26T07:14:33.969Z,29.48
2019-06-26T07:17:18.906Z,29.80
2019-06-26T07:19:32.731Z,29.49
2019-06-26T07:22:01.149Z,29.74
2019-06-26T07:24:29.745Z,30.09
2019-06-26T07:26:58.204Z,29.82
2019-06-26T07:29:26.634Z,30.11
2019-06-26T07:31:55.170Z,30.29
2019-06-26T07:34:23.746Z,30.34
2019-06-26T07:36:52.177Z,30.32
2019-06-26T07:39:20.645Z,30.57
2019-06-26T07:41:49.071Z,30.26
2019-06-26T07:44:17.568Z,30.35
2019-06-26T07:46:46.020Z,30.63
2019-06-26T07:49:14.514Z,30.83
2019-06-26T07:51:42.943Z,30.49
2019-06-26T07:54:11.425Z,30.72
2019-06-26T07:56:39.898Z,30.94
2019-06-26T07:59:08.329Z,30.73
2019-06-26T08:01:36.910Z,31.05
2019-06-26T08:04:05.396Z,31.47
2019-06-26T08:06:33.829Z,31.24
2019-06-26T08:09:02.401Z,31.32
2019-06-26T08:11:30.828Z,31.08
2019-06-26T08:13:59.266Z,31.31
2019-06-26T08:16:27.718Z,31.32
2019-06-26T08:18:56.152Z,31.79
2019-06-26T08:21:24.649Z,31.58
2019-06-26T08:23:53.209Z,31.81
2019-06-26T08:26:21.712Z,31.88
2019-06-26T08:28:50.157Z,31.76
2019-06-26T08:31:18.702Z,31.62
2019-06-26T08:33:47.224Z,31.95
2019-06-26T08:36:15.630Z,32.23
2019-06-26T08:38:44.206Z,32.15
2019-06-26T08:41:12.712Z,31.88
2019-06-26T08:43:41.140Z,32.11
2019-06-26T08:46:09.744Z,32.34
2019-06-26T08:48:40.131Z,32.24
2019-06-26T08:51:08.390Z,32.54
2019-06-26T08:53:36.845Z,32.89
2019-06-26T08:56:05.616Z,32.53
2019-06-26T08:58:34.123Z,32.66
2019-06-26T09:01:02.730Z,33.26
2019-06-26T09:03:31.239Z,33.34
2019-06-26T09:06:00.008Z,33.04
2019-06-26T09:08:28.793Z,33.16
2019-06-26T09:10:57.348Z,33.08
2019-06-26T09:13:25.785Z,33.20
2019-06-26T09:15:54.265Z,33.41
2019-06-26T09:18:34.770Z,33.50
2019-06-26T09:20:52.841Z,33.19
2019-06-26T09:23:21.292Z,33.40
2019-06-26T09:25:49.872Z,33.39
2019-06-26T09:28:18.310Z,33.64
2019-06-26T09:30:46.770Z,33.27
2019-06-26T09:33:15.247Z,33.39
2019-06-26T09:35:43.700Z,33.42
2019-06-26T09:38:12.188Z,33.51
2019-06-26T09:40:40.706Z,33.81
2019-06-26T09:43:09.133Z,34.16
2019-06-26T09:45:37.618Z,33.71
2019-06-26T09:48:06.218Z,34.20
2019-06-26T09:50:34.693Z,34.40
2019-06-26T09:53:05.414Z,34.71
2019-06-26T09:55:33.382Z,34.70
2019-06-26T09:58:01.817Z,35.26
2019-06-26T10:00:32.028Z,34.75
2019-06-26T10:03:00.566Z,34.94
2019-06-26T10:05:28.999Z,34.83
2019-06-26T10:07:57.627Z,34.21
2019-06-26T10:10:26.059Z,34.91
2019-06-26T10:12:54.487Z,34.68
2019-06-26T10:15:23.240Z,34.59
2019-06-26T10:17:51.638Z,34.81
2019-06-26T10:20:20.977Z,34.40
2019-06-26T10:22:49.501Z,34.71
2019-06-26T10:25:18.474Z,35.17
2019-06-26T10:27:46.982Z,35.34
2019-06-26T10:30:16.232Z,34.98
2019-06-26T10:32:44.644Z,34.91
2019-06-26T10:35:13.414Z,34.92
2019-06-26T10:37:41.954Z,35.39
2019-06-26T10:40:10.826Z,35.36
2019-06-26T10:42:39.255Z,35.07
2019-06-26T10:45:08.697Z,35.35
2019-06-26T10:47:39.702Z,35.49
2019-06-26T10:50:08.080Z,35.71
2019-06-26T10:52:36.621Z,35.40
2019-06-26T10:55:08.771Z,35.67
2019-06-26T10:57:37.244Z,35.92
2019-06-26T11:00:09.723Z,35.75
2019-06-26T11:02:38.479Z,35.67
2019-06-26T11:05:07.848Z,35.36
2019-06-26T11:07:37.245Z,35.19
2019-06-26T11:10:09.640Z,35.23
2019-06-26T11:12:38.116Z,35.66
2019-06-26T11:15:10.258Z,35.63
2019-06-26T11:17:38.741Z,36.07
2019-06-26T11:20:08.311Z,35.96
2019-06-26T11:22:37.155Z,36.12
2019-06-26T11:25:09.123Z,35.73
2019-06-26T11:27:37.654Z,36.03
2019-06-26T11:30:09.009Z,36.00
2019-06-26T11:32:37.611Z,36.18
2019-06-26T11:35:09.549Z,36.29
2019-06-26T11:37:38.170Z,35.82
2019-06-26T11:40:07.658Z,35.98
2019-06-26T11:42:37.031Z,35.46
2019-06-26T11:45:08.893Z,35.81
2019-06-26T11:47:37.697Z,36.38
2019-06-26T11:50:11.852Z,36.04
2019-06-26T11:52:40.651Z,36.24
2019-06-26T11:55:11.091Z,35.51
2019-06-26T11:57:39.652Z,35.76
2019-06-26T12:00:10.885Z,36.14
2019-06-26T12:02:39.412Z,36.16
2019-06-26T12:05:08.481Z,36.18
2019-06-26T12:07:37.009Z,35.98
2019-06-26T12:10:09.647Z,36.38
2019-06-26T12:12:38.191Z,36.68
2019-06-26T12:15:07.834Z,36.63
2019-06-26T12:17:36.440Z,36.66
2019-06-26T12:20:17.737Z,36.24
2019-06-26T12:22:36.772Z,36.46
2019-06-26T12:25:06.042Z,36.26
2019-06-26T12:27:34.540Z,36.73
2019-06-26T12:30:03.375Z,36.61
2019-06-26T12:32:41.437Z,36.19
2019-06-26T12:35:02.029Z,36.27
2019-06-26T12:37:37.622Z,36.71
2019-06-26T12:40:01.056Z,36.52
2019-06-26T12:42:29.493Z,36.11
2019-06-26T12:44:58.027Z,36.26
2019-06-26T12:47:26.511Z,36.33
2019-06-26T12:49:54.968Z,36.59
2019-06-26T12:52:23.429Z,36.55
2019-06-26T12:54:52.010Z,36.00
2019-06-26T12:57:20.454Z,36.29
2019-06-26T12:59:57.262Z,36.26
2019-06-26T13:02:19.220Z,36.01
2019-06-26T13:04:47.717Z,35.91
2019-06-26T13:07:16.276Z,35.71
2019-06-26T13:09:44.716Z,36.22
2019-06-26T13:12:13.159Z,36.26
2019-06-26T13:14:41.689Z,36.52
2019-06-26T13:17:10.218Z,36.64
2019-06-26T13:19:38.688Z,36.24
2019-06-26T13:22:07.144Z,36.48
2019-06-26T13:24:35.663Z,36.92
2019-06-26T13:27:05.374Z,36.91
2019-06-26T13:29:33.965Z,37.22
2019-06-26T13:32:02.388Z,36.92
2019-06-26T13:34:30.815Z,37.04
2019-06-26T13:36:59.285Z,36.90
2019-06-26T13:39:28.797Z,36.92
2019-06-26T13:41:57.582Z,36.77
2019-06-26T13:44:26.121Z,36.71
2019-06-26T13:46:54.547Z,36.37
2019-06-26T13:49:22.973Z,36.27
2019-06-26T13:51:51.441Z,36.45
2019-06-26T13:54:19.886Z,36.52
2019-06-26T13:56:48.329Z,36.49
2019-06-26T13:59:16.787Z,36.40
2019-06-26T14:01:45.214Z,36.47
2019-06-26T14:04:13.667Z,36.42
2019-06-26T14:06:42.124Z,36.46
2019-06-26T14:09:12.131Z,36.52
2019-06-26T14:11:40.549Z,36.52
2019-06-26T14:14:09.026Z,36.32
2019-06-26T14:16:38.500Z,36.44
2019-06-26T14:19:07.017Z,36.78
2019-06-26T14:21:35.483Z,36.67
2019-06-26T14:24:04.476Z,36.73
2019-06-26T14:26:33.033Z,36.66
2019-06-26T14:29:01.451Z,36.99
2019-06-26T14:31:29.906Z,36.68
2019-06-26T14:33:58.369Z,36.82
2019-06-26T14:36:26.874Z,37.02
2019-06-26T14:38:55.299Z,36.87
2019-06-26T14:41:23.862Z,36.67
2019-06-26T14:43:52.485Z,36.64
2019-06-26T14:46:20.914Z,36.68
2019-06-26T14:48:49.340Z,36.83
2019-06-26T14:51:17.925Z,36.85
2019-06-26T14:53:46.361Z,36.90
2019-06-26T14:56:14.818Z,36.52
2019-06-26T14:58:43.470Z,36.66
2019-06-26T15:01:11.895Z,36.48
2019-06-26T15:03:40.331Z,36.64
2019-06-26T15:06:16.298Z,36.52
2019-06-26T15:08:39.185Z,36.58
2019-06-26T15:11:07.678Z,36.64
2019-06-26T15:13:36.202Z,36.69
2019-06-26T15:16:04.711Z,36.85
2019-06-26T15:18:33.284Z,36.62
2019-06-26T15:21:02.248Z,36.91
2019-06-26T15:23:30.840Z,37.05
2019-06-26T15:25:59.279Z,36.99
2019-06-26T15:28:27.924Z,37.28
2019-06-26T15:30:56.407Z,37.01
2019-06-26T15:33:24.900Z,37.31
2019-06-26T15:35:53.346Z,37.22
2019-06-26T15:38:21.776Z,37.47
2019-06-26T15:40:50.308Z,37.17
2019-06-26T15:43:18.745Z,37.47
2019-06-26T15:45:47.257Z,37.13
2019-06-26T15:48:15.883Z,37.13
2019-06-26T15:50:44.406Z,37.01
2019-06-26T15:53:12.865Z,36.69
2019-06-26T15:55:41.357Z,36.80
2019-06-26T15:58:09.782Z,36.67
2019-06-26T16:00:38.216Z,36.98
2019-06-26T16:03:06.719Z,36.90
2019-06-26T16:05:35.194Z,36.46
2019-06-26T16:08:03.667Z,36.53
2019-06-26T16:10:34.482Z,36.62
2019-06-26T16:13:02.402Z,36.82
2019-06-26T16:15:30.860Z,36.66
2019-06-26T16:18:06.954Z,36.75
2019-06-26T16:20:35.457Z,36.79
2019-06-26T16:23:04.079Z,36.60
2019-06-26T16:25:32.554Z,36.57
2019-06-26T16:28:05.746Z,36.37
2019-06-26T16:30:31.143Z,36.60
2019-06-26T16:32:59.647Z,36.49
2019-06-26T16:35:28.080Z,36.52
2019-06-26T16:37:56.514Z,36.50
2019-06-26T16:40:25.052Z,36.52
2019-06-26T16:42:53.473Z,36.26
2019-06-26T16:45:21.990Z,36.19
2019-06-26T16:47:50.503Z,36.42
2019-06-26T16:50:19.140Z,36.56
2019-06-26T16:52:49.726Z,36.68
2019-06-26T16:55:18.218Z,36.51
2019-06-26T16:57:46.640Z,36.55
2019-06-26T17:00:17.778Z,36.42
2019-06-26T17:02:46.312Z,36.25
2019-06-26T17:05:15.150Z,36.15
2019-06-26T17:07:43.559Z,36.10
2019-06-26T17:10:12.557Z,35.83
2019-06-26T17:12:41.093Z,35.85
2019-06-26T17:15:09.796Z,35.47
2019-06-26T17:17:38.539Z,35.22
2019-06-26T17:20:07.294Z,35.21
2019-06-26T17:22:35.730Z,35.31
2019-06-26T17:25:05.630Z,35.24
2019-06-26T17:27:34.188Z,35.07
2019-06-26T17:30:03.235Z,35.10
2019-06-26T17:32:31.715Z,35.03
2019-06-26T17:35:00.172Z,35.23
2019-06-26T17:37:28.571Z,34.97
2019-06-26T17:39:57.099Z,34.75
2019-06-26T17:42:25.610Z,34.92
2019-06-26T17:44:54.042Z,34.98
2019-06-26T17:47:22.510Z,34.76
2019-06-26T17:49:50.939Z,34.60
2019-06-26T17:52:19.449Z,34.75
2019-06-26T17:54:47.936Z,34.61
2019-06-26T17:57:16.403Z,34.73
2019-06-26T17:59:44.949Z,34.58
2019-06-26T18:02:13.509Z,34.60
2019-06-26T18:04:41.944Z,34.53
2019-06-26T18:07:10.476Z,34.50
2019-06-26T18:09:38.979Z,34.26
2019-06-26T18:12:07.482Z,34.29
2019-06-26T18:14:35.933Z,34.19
2019-06-26T18:17:20.890Z,34.22
2019-06-26T18:19:34.790Z,34.15
2019-06-26T18:22:03.307Z,33.99
2019-06-26T18:24:31.859Z,34.23
2019-06-26T18:27:00.291Z,34.24
2019-06-26T18:29:28.786Z,34.01
2019-06-26T18:31:57.323Z,34.04
2019-06-26T18:34:25.760Z,33.84
2019-06-26T18:36:54.182Z,33.72
2019-06-26T18:39:22.691Z,33.91
2019-06-26T18:41:51.191Z,33.86
2019-06-26T18:44:19.656Z,33.64
2019-06-26T18:46:48.113Z,33.46
2019-06-26T18:49:16.563Z,33.62
2019-06-26T18:51:45.091Z,33.46
2019-06-26T18:54:13.690Z,33.57
2019-06-26T18:56:42.191Z,33.56
2019-06-26T18:59:10.624Z,33.30
2019-06-26T19:01:39.286Z,33.21
2019-06-26T19:04:07.717Z,33.33
2019-06-26T19:06:36.146Z,33.05
2019-06-26T19:09:06.861Z,32.94
2019-06-26T19:11:35.286Z,32.81
2019-06-26T19:14:03.876Z,32.88
2019-06-26T19:16:36.025Z,32.63
2019-06-26T19:19:02.563Z,32.80
2019-06-26T19:21:31.013Z,32.78
2019-06-26T19:24:09.556Z,32.67
2019-06-26T19:26:29.639Z,32.62
2019-06-26T19:28:58.143Z,32.49
2019-06-26T19:31:26.870Z,32.40
2019-06-26T19:33:55.307Z,32.31
2019-06-26T19:36:28.282Z,32.28
2019-06-26T19:38:54.347Z,32.34
2019-06-26T19:41:22.777Z,32.23
2019-06-26T19:43:51.226Z,32.15
2019-06-26T19:46:19.710Z,32.08
2019-06-26T19:48:48.139Z,31.91
2019-06-26T19:51:16.713Z,32.16
2019-06-26T19:53:45.173Z,31.96
2019-06-26T19:56:13.692Z,32.05
2019-06-26T19:58:42.145Z,31.96
2019-06-26T20:01:10.627Z,31.84
2019-06-26T20:03:39.066Z,31.68
2019-06-26T20:06:07.566Z,31.32
2019-06-26T20:08:51.448Z,31.31
2019-06-26T20:11:06.301Z,31.58
2019-06-26T20:13:34.725Z,31.43
2019-06-26T20:16:03.361Z,31.51
2019-06-26T20:18:31.871Z,31.22
2019-06-26T20:21:00.310Z,31.06
2019-06-26T20:23:28.762Z,31.39
2019-06-26T20:25:57.284Z,31.23
2019-06-26T20:28:25.733Z,31.17
2019-06-26T20:30:54.307Z,31.21
2019-06-26T20:33:22.732Z,30.77
2019-06-26T20:35:51.168Z,30.92
2019-06-26T20:38:19.743Z,30.93
2019-06-26T20:40:48.248Z,30.84
2019-06-26T20:43:16.732Z,30.83
2019-06-26T20:45:45.262Z,31.33
2019-06-26T20:48:13.758Z,30.88
2019-06-26T20:50:42.177Z,31.06
2019-06-26T20:53:10.754Z,30.50
2019-06-26T20:55:39.191Z,30.48
2019-06-26T20:58:07.621Z,30.37
2019-06-26T21:00:36.150Z,29.92
2019-06-26T21:03:04.668Z,29.90
2019-06-26T21:05:33.090Z,29.75
2019-06-26T21:08:01.585Z,29.61
2019-06-26T21:10:30.031Z,29.46
2019-06-26T21:12:58.466Z,29.50
2019-06-26T21:15:26.938Z,29.40
2019-06-26T21:17:55.437Z,29.37
2019-06-26T21:20:23.868Z,29.30
2019-06-26T21:22:52.513Z,29.19
2019-06-26T21:25:20.962Z,29.12
2019-06-26T21:27:49.414Z,29.21
2019-06-26T21:30:18.997Z,29.18
2019-06-26T21:32:47.436Z,29.15
2019-06-26T21:35:15.862Z,28.92
2019-06-26T21:37:44.540Z,28.43
2019-06-26T21:40:13.649Z,28.15
2019-06-26T21:42:42.103Z,28.08
2019-06-26T21:45:11.107Z,27.96
2019-06-26T21:47:39.545Z,27.99
2019-06-26T21:50:08.219Z,27.84
2019-06-26T21:52:36.851Z,27.94
2019-06-26T21:55:06.617Z,27.89
2019-06-26T21:57:35.057Z,27.83
2019-06-26T22:00:04.815Z,27.66
2019-06-26T22:02:33.382Z,28.00
2019-06-26T22:05:01.881Z,27.67
2019-06-26T22:07:30.493Z,27.74
2019-06-26T22:09:58.945Z,27.67
2019-06-26T22:12:27.445Z,27.56
2019-06-26T22:14:56.154Z,27.42
2019-06-26T22:17:24.653Z,27.49
2019-06-26T22:19:53.087Z,27.49
2019-06-26T22:22:21.543Z,27.31
2019-06-26T22:24:50.053Z,27.10
2019-06-26T22:27:18.478Z,27.22
2019-06-26T22:29:47.152Z,27.20
2019-06-26T22:32:15.653Z,27.16
2019-06-26T22:34:44.363Z,27.04
2019-06-26T22:37:14.322Z,27.19
2019-06-26T22:39:42.759Z,26.99
2019-06-26T22:42:11.181Z,26.98
2019-06-26T22:44:39.661Z,26.91
2019-06-26T22:47:08.077Z,26.63
2019-06-26T22:49:36.579Z,26.67
2019-06-26T22:52:05.214Z,26.47
2019-06-26T22:54:33.646Z,26.32
2019-06-26T22:57:02.087Z,26.46
2019-06-26T22:59:30.554Z,26.58
2019-06-26T23:01:58.987Z,26.34
2019-06-26T23:04:27.418Z,26.53
2019-06-26T23:06:55.943Z,26.37
2019-06-26T23:09:24.379Z,26.26
2019-06-26T23:11:52.834Z,26.26
2019-06-26T23:14:21.371Z,26.32
2019-06-26T23:16:49.799Z,26.26
2019-06-26T23:19:18.225Z,26.37
2019-06-26T23:21:46.793Z,26.36
2019-06-26T23:26:43.892Z,26.20
2019-06-26T23:29:12.478Z,26.08
2019-06-26T23:31:40.905Z,26.06
2019-06-26T23:34:09.337Z,26.01
2019-06-26T23:36:37.802Z,26.02
2019-06-26T23:39:06.307Z,26.12
2019-06-26T23:41:34.798Z,25.88
2019-06-26T23:44:03.257Z,26.02
2019-06-26T23:46:31.709Z,25.96
2019-06-26T23:49:00.146Z,25.85
2019-06-26T23:51:28.621Z,25.73
2019-06-26T23:53:57.058Z,25.60
2019-06-26T23:56:39.556Z,25.59
2019-06-26T23:58:55.789Z,25.47
